Time;durP1;ratioP1;P1;durP2;ratioP2;P2;SDS_P1;SDS_P2;PMS_P1;PMS_P2;Temp;Humidity;BMP_temperature;BMP_pressure;BME280_temperature;BME280_humidity;BME280_pressure;Samples;Min_cycle;Max_cycle;Signal;HPM_P1;HPM_P2
2024/01/05 00:02:05;;;;;;;1.33;1.30;;;;;;;5.62;100.00;-23971.91;5032272;28;20602;-66
2024/01/05 00:04:30;;;;;;;1.20;1.20;;;;;;;5.94;100.00;-23980.88;5033783;28;20378;-66
2024/01/05 00:06:56;;;;;;;2.07;1.67;;;;;;;6.10;100.00;-23985.41;5033603;28;20531;-66
2024/01/05 00:09:21;;;;;;;1.60;1.50;;;;;;;5.93;100.00;-23664.19;5033858;28;20600;-65
2024/01/05 00:11:48;;;;;;;1.50;1.40;;;;;;;5.91;100.00;-23347.41;5033384;28;20207;-67
2024/01/05 00:14:13;;;;;;;1.50;1.43;;;;;;;5.61;100.00;-23339.44;5033412;28;20195;-66
2024/01/05 00:16:38;;;;;;;1.80;1.70;;;;;;;5.70;100.00;-23341.78;5033446;28;20179;-66
2024/01/05 00:19:04;;;;;;;1.33;1.27;;;;;;;5.45;100.00;-23334.94;5031671;28;20180;-66
2024/01/05 00:21:29;;;;;;;1.87;1.77;;;;;;;5.50;100.00;-23336.44;5033752;28;20184;-65
2024/01/05 00:23:56;;;;;;;1.60;1.50;;;;;;;5.61;100.00;-23023.19;5033046;28;20266;-66
2024/01/05 00:26:22;;;;;;;1.40;1.30;;;;;;;5.58;100.00;-23022.50;5033307;28;20701;-67
2024/01/05 00:28:50;;;;;;;1.40;1.30;;;;;;;5.78;100.00;-23027.75;5033111;28;20191;-65
2024/01/05 00:31:15;;;;;;;1.73;1.50;;;;;;;5.60;100.00;-23339.16;5036931;28;20194;-67
2024/01/05 00:33:42;;;;;;;1.10;1.10;;;;;;;5.36;100.00;-23332.59;5036214;28;20618;-66
2024/01/05 00:36:11;;;;;;;1.70;1.60;;;;;;;5.54;100.00;-23337.41;5032557;28;20190;-66
2024/01/05 00:38:37;;;;;;;1.50;1.40;;;;;;;5.53;100.00;-23337.25;5033161;28;20183;-67
2024/01/05 00:41:04;;;;;;;1.93;1.63;;;;;;;5.24;100.00;-23645.22;5035537;28;20530;-66
2024/01/05 00:43:30;;;;;;;1.50;1.40;;;;;;;5.29;100.00;-23330.69;5034556;28;20179;-67
2024/01/05 00:45:56;;;;;;;1.47;1.40;;;;;;;5.22;100.00;-23328.78;5032761;28;20175;-66
2024/01/05 00:48:21;;;;;;;1.83;1.73;;;;;;;5.44;100.00;-23334.78;5032999;28;20179;-67
2024/01/05 00:50:47;;;;;;;1.50;1.40;;;;;;;5.45;100.00;-23334.94;5032761;28;20591;-64
2024/01/05 00:53:12;;;;;;;1.30;1.30;;;;;;;5.11;100.00;-23325.88;5033039;28;20179;-69
2024/01/05 00:55:38;;;;;;;1.17;1.17;;;;;;;5.18;100.00;-23327.81;5032475;28;20682;-67
2024/01/05 00:58:04;;;;;;;1.50;1.40;;;;;;;5.03;100.00;-23323.56;5032711;28;20601;-66
2024/01/05 01:00:30;;;;;;;1.37;1.33;;;;;;;4.66;100.00;-23313.69;5032589;28;20631;-66
2024/01/05 01:02:55;;;;;;;1.30;1.30;;;;;;;5.00;100.00;-23322.88;5032106;28;20305;-66
2024/01/05 01:05:21;;;;;;;1.30;1.30;;;;;;;5.01;100.00;-23323.00;5032531;28;20271;-66
2024/01/05 01:07:47;;;;;;;1.13;1.13;;;;;;;5.23;100.00;-23329.19;5032377;28;20262;-68
2024/01/05 01:10:12;;;;;;;1.20;1.20;;;;;;;5.51;100.00;-23020.63;5032185;28;20254;-65
2024/01/05 01:12:38;;;;;;;1.67;1.57;;;;;;;5.50;100.00;-23336.44;5032291;28;20175;-65
2024/01/05 01:15:04;;;;;;;1.50;1.40;;;;;;;5.58;100.00;-23338.63;5032296;28;20206;-66
2024/01/05 01:17:30;;;;;;;1.37;1.37;;;;;;;5.67;100.00;-22708.59;5032068;28;20187;-67
2024/01/05 01:19:56;;;;;;;1.20;1.20;;;;;;;6.09;100.00;-22086.63;5032542;28;20172;-64
2024/01/05 01:22:21;;;;;;;1.10;1.10;;;;;;;6.30;100.00;-21141.88;5032292;28;20202;-66
2024/01/05 01:24:47;;;;;;;1.43;1.33;;;;;;;6.46;100.00;-20828.91;5031878;28;20656;-66
2024/01/05 01:27:13;;;;;;;1.57;1.47;;;;;;;6.73;100.00;-19567.16;5031876;28;20349;-66
2024/01/05 01:29:39;;;;;;;1.67;1.53;;;;;;;6.74;100.00;-19567.25;5031748;28;20172;-67
2024/01/05 01:32:04;;;;;;;1.60;1.50;;;;;;;6.55;100.00;-19246.38;5039842;28;20694;-66
2024/01/05 01:34:30;;;;;;;1.17;1.17;;;;;;;6.62;100.00;-18930.84;5030114;28;20250;-65
2024/01/05 01:36:55;;;;;;;1.50;1.40;;;;;;;6.75;100.00;-18616.09;5031455;28;20627;-67
2024/01/05 01:39:21;;;;;;;1.20;1.20;;;;;;;7.11;100.00;-17988.38;5031428;28;20183;-67
2024/01/05 01:41:46;;;;;;;1.00;1.00;;;;;;;7.12;100.00;-17036.16;5031435;28;20254;-67
2024/01/05 01:44:11;;;;;;;1.50;1.40;;;;;;;6.97;100.00;-16716.25;5036282;28;20237;-65
2024/01/05 01:46:38;;;;;;;1.60;1.50;;;;;;;7.21;100.00;-16402.47;5030909;28;20188;-66
2024/01/05 01:49:04;;;;;;;1.10;1.10;;;;;;;6.88;100.00;-17032.09;5031521;28;20175;-67
2024/01/05 01:51:32;;;;;;;1.53;1.43;;;;;;;7.00;100.00;-16716.66;5031113;28;20206;-65
2024/01/05 01:54:03;;;;;;;1.60;1.50;;;;;;;7.24;100.00;-16085.22;5031141;28;20263;-67
2024/01/05 01:56:29;;;;;;;1.00;1.00;;;;;;;6.82;100.00;-15761.41;5031049;28;20175;-66
2024/01/05 01:58:55;;;;;;;1.40;1.30;;;;;;;6.75;100.00;-16712.63;5031299;28;20260;-66
2024/01/05 02:01:21;;;;;;;1.30;1.30;;;;;;;7.10;100.00;-15765.63;5031053;28;20832;-64
2024/01/05 02:03:46;;;;;;;1.20;1.20;;;;;;;7.02;100.00;-15446.75;5030860;28;20226;-66
2024/01/05 02:06:12;;;;;;;1.40;1.33;;;;;;;6.69;100.00;-16076.88;5031199;28;20178;-67
2024/01/05 02:08:38;;;;;;;1.20;1.20;;;;;;;6.87;100.00;-14809.53;5030978;28;20182;-68
2024/01/05 02:11:03;;;;;;;1.57;1.47;;;;;;;6.74;100.00;-15442.84;5030948;28;20183;-66
2024/01/05 02:13:29;;;;;;;1.37;1.30;;;;;;;6.92;100.00;-15762.97;5031303;28;20168;-64
2024/01/05 02:15:55;;;;;;;1.50;1.40;;;;;;;6.90;100.00;-16080.09;5031051;28;20294;-64
2024/01/05 02:18:20;;;;;;;2.43;2.00;;;;;;;6.91;100.00;-15762.72;5031170;28;20171;-67
2024/01/05 02:20:46;;;;;;;1.10;1.10;;;;;;;6.72;100.00;-16077.34;5030947;28;20303;-66
2024/01/05 02:23:32;;;;;;;1.30;1.30;;;;;;;6.92;100.00;-15445.34;5031274;28;20230;-65
2024/01/05 02:25:58;;;;;;;1.17;1.17;;;;;;;6.93;100.00;-15127.88;5030957;28;20187;-66
2024/01/05 02:28:24;;;;;;;1.23;1.23;;;;;;;6.79;100.00;-14808.50;5030680;28;20172;-65
2024/01/05 02:30:53;;;;;;;1.10;1.10;;;;;;;6.69;100.00;-14807.16;5030753;28;20241;-66
2024/01/05 02:33:18;;;;;;;1.30;1.30;;;;;;;6.78;100.00;-14490.72;5031144;28;20229;-65
2024/01/05 02:35:43;;;;;;;1.20;1.20;;;;;;;7.07;100.00;-13858.88;5030969;28;20210;-66
2024/01/05 02:38:09;;;;;;;1.13;1.13;;;;;;;6.94;100.00;-12268.38;5030974;28;20651;-68
2024/01/05 02:40:34;;;;;;;1.20;1.20;;;;;;;7.23;100.00;-11634.75;5030858;28;20175;-67
2024/01/05 02:42:59;;;;;;;1.43;1.33;;;;;;;7.09;100.00;-11315.66;5030281;28;20179;-66
2024/01/05 02:45:25;;;;;;;1.10;1.10;;;;;;;7.23;100.00;-11316.69;5031078;28;20175;-67
2024/01/05 02:47:51;;;;;;;1.30;1.30;;;;;;;7.05;100.00;-11951.41;5034709;28;20637;-65
2024/01/05 02:50:18;;;;;;;1.00;1.00;;;;;;;7.13;100.00;-10679.69;5030722;28;20236;-65
2024/01/05 02:52:43;;;;;;;1.30;1.30;;;;;;;7.24;100.00;-9725.69;5031342;28;20187;-66
2024/01/05 02:55:12;;;;;;;1.70;1.60;;;;;;;7.45;100.00;-9089.84;5030566;28;20266;-65
2024/01/05 02:57:38;;;;;;;1.20;1.20;;;;;;;7.14;100.00;-9725.19;5030073;28;20548;-66
2024/01/05 03:00:05;;;;;;;1.43;1.33;;;;;;;7.34;100.00;-9726.16;5030747;28;20179;-66
2024/01/05 03:02:31;;;;;;;1.03;1.03;;;;;;;7.30;100.00;-8133.97;5030774;28;20193;-66
2024/01/05 03:04:57;;;;;;;1.20;1.20;;;;;;;7.43;100.00;-7497.13;5030627;28;20175;-66
2024/01/05 03:07:22;;;;;;;1.37;1.30;;;;;;;7.18;100.00;-5904.06;5030007;28;20299;-65
2024/01/05 03:09:48;;;;;;;1.20;1.20;;;;;;;7.29;100.00;-4310.06;5029791;28;20592;-65
2024/01/05 03:12:13;;;;;;;1.10;1.10;;;;;;;7.53;100.00;-4628.03;5030615;28;20654;-66
2024/01/05 03:14:39;;;;;;;1.10;1.10;;;;;;;7.56;100.00;-4627.94;5029601;28;20203;-66
2024/01/05 03:17:04;;;;;;;1.10;1.10;;;;;;;7.38;100.00;-3990.78;5030434;28;20171;-67
2024/01/05 03:19:30;;;;;;;1.60;1.50;;;;;;;7.63;100.00;-3989.66;5030539;28;20557;-68
2024/01/05 03:21:55;;;;;;;1.30;1.20;;;;;;;7.36;100.00;-3990.88;5029881;28;20199;-67
2024/01/05 03:24:21;;;;;;;1.13;1.13;;;;;;;7.50;100.00;-3671.22;4597113;28;20254;-67
2024/01/05 03:26:46;;;;;;;1.40;1.30;;;;;;;7.31;100.00;-4310.00;5029893;28;20175;-67
2024/01/05 03:29:11;;;;;;;1.10;1.10;;;;;;;7.37;100.00;-3352.94;5030274;28;20610;-65
2024/01/05 03:31:37;;;;;;;1.13;1.13;;;;;;;7.59;100.00;-3351.72;5030336;28;20222;-64
2024/01/05 03:34:03;;;;;;;1.10;1.10;;;;;;;7.39;100.00;-2714.78;5030291;28;20246;-66
2024/01/05 03:36:28;;;;;;;1.07;1.07;;;;;;;7.54;100.00;-3351.97;5030405;28;20179;-67
2024/01/05 03:38:54;;;;;;;1.10;1.10;;;;;;;7.50;100.00;-3352.22;5029979;28;20576;-68
2024/01/05 03:41:19;;;;;;;1.20;1.20;;;;;;;7.38;100.00;-5266.22;5030120;28;20187;-67
2024/01/05 03:43:45;;;;;;;1.40;1.30;;;;;;;6.97;100.00;-7496.59;5030487;28;20286;-65
2024/01/05 03:46:11;;;;;;;1.20;1.20;;;;;;;6.98;100.00;-7496.59;5030208;28;20256;-64
2024/01/05 03:48:37;;;;;;;1.40;1.30;;;;;;;6.95;100.00;-7496.56;5031115;28;20176;-65
2024/01/05 03:51:03;;;;;;;1.17;1.17;;;;;;;6.97;100.00;-6859.78;5032872;28;20172;-66
2024/01/05 03:53:29;;;;;;;1.40;1.30;;;;;;;6.94;100.00;-6541.34;5029959;28;20187;-65
2024/01/05 03:55:57;;;;;;;1.40;1.30;;;;;;;7.14;100.00;-6222.72;5029724;28;20222;-66
2024/01/05 03:58:23;;;;;;;1.10;1.10;;;;;;;7.23;100.00;-6541.22;5029758;28;20261;-65
2024/01/05 04:00:48;;;;;;;1.10;1.10;;;;;;;7.19;100.00;-5266.72;5037304;28;20594;-66
2024/01/05 04:03:14;;;;;;;1.30;1.30;;;;;;;7.16;100.00;-4629.38;5030062;28;20268;-66
2024/01/05 04:05:39;;;;;;;1.10;1.10;;;;;;;7.43;100.00;-3352.59;5029890;28;20175;-65
2024/01/05 04:08:05;;;;;;;1.10;1.10;;;;;;;7.42;100.00;-2395.50;5029663;28;20206;-66
2024/01/05 04:10:30;;;;;;;1.10;1.10;;;;;;;7.05;100.00;-2079.19;5031927;28;20210;-67
2024/01/05 04:12:55;;;;;;;1.20;1.20;;;;;;;7.47;100.00;-3033.34;5033422;28;20168;-66
2024/01/05 04:15:21;;;;;;;1.17;1.17;;;;;;;7.31;100.00;-2077.25;5032026;28;20203;-67
2024/01/05 04:17:47;;;;;;;1.20;1.20;;;;;;;7.42;100.00;-2714.59;5033747;28;20174;-66
2024/01/05 04:20:12;;;;;;;1.10;1.10;;;;;;;7.09;100.00;-4310.88;5034352;28;20721;-66
2024/01/05 04:22:38;;;;;;;1.30;1.30;;;;;;;7.32;100.00;-5266.38;5039024;28;20318;-65
2024/01/05 04:25:04;;;;;;;1.33;1.30;;;;;;;7.05;100.00;-5904.22;5033094;28;20670;-65
2024/01/05 04:27:29;;;;;;;1.00;1.00;;;;;;;6.76;100.00;-8132.78;5033433;28;20254;-69
2024/01/05 04:29:54;;;;;;;1.47;1.37;;;;;;;6.47;100.00;-10357.72;5033091;28;20172;-67
2024/01/05 04:32:20;;;;;;;1.30;1.30;;;;;;;6.50;100.00;-10675.69;5033225;28;20215;-65
2024/01/05 04:34:45;;;;;;;1.10;1.10;;;;;;;6.54;100.00;-11629.31;5033071;28;20539;-66
2024/01/05 04:37:10;;;;;;;1.83;1.73;;;;;;;6.24;100.00;-12262.00;5033263;28;20183;-67
2024/01/05 04:39:36;;;;;;;1.10;1.10;;;;;;;6.50;100.00;-12582.06;5032853;28;20721;-67
2024/01/05 04:42:01;;;;;;;1.13;1.13;;;;;;;5.98;100.00;-12894.44;5032939;28;20183;-65
2024/01/05 04:44:27;;;;;;;1.20;1.20;;;;;;;6.11;100.00;-13530.50;5032854;28;20175;-65
2024/01/05 04:46:52;;;;;;;1.00;1.00;;;;;;;5.90;100.00;-13845.38;5033009;28;20211;-66
2024/01/05 04:49:17;;;;;;;1.23;1.23;;;;;;;6.13;100.00;-13848.06;5033129;28;20254;-66
2024/01/05 04:51:43;;;;;;;1.10;1.10;;;;;;;6.00;100.00;-14163.75;5035164;28;20184;-65
2024/01/05 04:54:08;;;;;;;1.40;1.30;;;;;;;5.94;100.00;-14163.03;5034107;28;20203;-66
2024/01/05 04:56:33;;;;;;;1.10;1.10;;;;;;;5.69;100.00;-14159.97;5032685;28;20164;-65
2024/01/05 04:58:59;;;;;;;1.30;1.30;;;;;;;5.68;100.00;-14159.91;5033068;28;20241;-65
2024/01/05 05:01:24;;;;;;;1.07;1.07;;;;;;;5.47;100.00;-14474.19;5032443;28;20243;-66
2024/01/05 05:03:50;;;;;;;1.20;1.20;;;;;;;5.73;100.00;-15111.59;5031983;28;20258;-65
2024/01/05 05:06:15;;;;;;;1.00;1.00;;;;;;;5.65;100.00;-15427.34;5030883;28;20195;-67
2024/01/05 05:08:40;;;;;;;1.23;1.20;;;;;;;5.41;100.00;-15423.91;5031720;28;20179;-67
2024/01/05 05:11:06;;;;;;;1.63;1.20;;;;;;;5.63;100.00;-15110.16;5033570;28;20253;-65
2024/01/05 05:13:31;;;;;;;1.10;1.10;;;;;;;5.45;100.00;-15107.66;5039088;28;20234;-69
2024/01/05 05:15:57;;;;;;;1.10;1.10;;;;;;;5.53;100.00;-14474.97;5030754;28;20229;-67
2024/01/05 05:18:22;;;;;;;1.50;1.40;;;;;;;5.86;100.00;-14162.06;5032583;28;20685;-66
2024/01/05 05:20:48;;;;;;;1.17;1.17;;;;;;;5.89;100.00;-13845.25;5031071;28;20183;-68
2024/01/05 05:23:13;;;;;;;1.37;1.30;;;;;;;5.67;100.00;-13525.56;5030208;28;20188;-66
2024/01/05 05:25:39;;;;;;;1.20;1.20;;;;;;;5.95;100.00;-13211.44;5031615;28;20252;-65
2024/01/05 05:28:04;;;;;;;1.27;1.27;;;;;;;5.81;100.00;-13209.91;5031590;28;20205;-66
2024/01/05 05:30:31;;;;;;;1.40;1.30;;;;;;;5.69;100.00;-13208.72;5031761;28;20587;-65
2024/01/05 05:32:57;;;;;;;1.23;1.23;;;;;;;5.68;100.00;-13525.69;5031392;28;20276;-64
2024/01/05 05:35:22;;;;;;;1.70;1.60;;;;;;;5.76;100.00;-13526.59;5031482;28;20206;-66
2024/01/05 05:37:48;;;;;;;1.70;1.60;;;;;;;5.55;100.00;-13207.16;5031240;28;20182;-66
2024/01/05 05:40:13;;;;;;;1.03;1.03;;;;;;;6.05;100.00;-12577.72;5036491;28;20573;-67
2024/01/05 05:42:39;;;;;;;1.50;1.40;;;;;;;6.10;100.00;-11308.31;5035560;28;20651;-65
2024/01/05 05:45:04;;;;;;;1.10;1.10;;;;;;;6.15;100.00;-10038.13;5040538;28;20342;-66
2024/01/05 05:47:30;;;;;;;1.30;1.30;;;;;;;6.08;100.00;-10037.75;5031704;28;20260;-67
2024/01/05 05:49:55;;;;;;;1.13;1.13;;;;;;;6.06;100.00;-10037.66;5035594;28;20187;-64
2024/01/05 05:52:21;;;;;;;1.20;1.20;;;;;;;6.31;100.00;-8767.63;5035094;28;20237;-67
2024/01/05 05:54:46;;;;;;;1.20;1.20;;;;;;;5.95;100.00;-8130.97;5035068;28;20218;-67
2024/01/05 05:57:12;;;;;;;1.20;1.20;;;;;;;6.00;100.00;-8131.06;5030472;28;20274;-66
2024/01/05 05:59:38;;;;;;;1.20;1.20;;;;;;;6.15;100.00;-9084.91;5029290;28;20242;-66
2024/01/05 06:02:03;;;;;;;1.43;1.33;;;;;;;5.98;100.00;-10672.41;5030164;28;20182;-67
2024/01/05 06:04:29;;;;;;;1.20;1.20;;;;;;;5.73;100.00;-10988.16;5031029;28;20175;-65
2024/01/05 06:06:54;;;;;;;1.07;1.07;;;;;;;5.82;100.00;-10353.88;5030781;28;20291;-67
2024/01/05 06:09:19;;;;;;;1.20;1.20;;;;;;;5.98;100.00;-9401.94;5031214;28;20669;-66
2024/01/05 06:11:45;;;;;;;1.10;1.10;;;;;;;6.16;100.00;-8449.31;5030671;28;20319;-66
2024/01/05 06:14:10;;;;;;;1.30;1.30;;;;;;;6.13;100.00;-8131.38;5030825;28;20316;-64
2024/01/05 06:16:35;;;;;;;1.00;1.00;;;;;;;6.12;100.00;-8131.38;5030486;28;20179;-65
2024/01/05 06:19:01;;;;;;;1.10;1.10;;;;;;;5.87;100.00;-8448.50;5030465;28;20713;-65
2024/01/05 06:21:27;;;;;;;1.10;1.10;;;;;;;5.93;100.00;-9084.09;5030373;28;20172;-66
2024/01/05 06:23:53;;;;;;;1.00;1.00;;;;;;;5.96;100.00;-9719.50;5030953;28;20179;-67
2024/01/05 06:26:19;;;;;;;1.20;1.20;;;;;;;5.93;100.00;-10036.97;5030683;28;20511;-67
2024/01/05 06:28:44;;;;;;;1.30;1.20;;;;;;;5.85;100.00;-10671.56;5030770;28;20171;-65
2024/01/05 06:31:10;;;;;;;1.20;1.20;;;;;;;6.03;100.00;-10355.13;5030701;28;20230;-66
2024/01/05 06:33:35;;;;;;;1.53;1.47;;;;;;;5.73;100.00;-8448.13;5029584;28;20219;-66
2024/01/05 06:36:01;;;;;;;1.00;1.00;;;;;;;5.92;100.00;-9084.06;5029184;28;20191;-66
2024/01/05 06:38:26;;;;;;;1.20;1.20;;;;;;;6.12;100.00;-10037.97;5030686;28;20259;-67
2024/01/05 06:40:52;;;;;;;1.77;1.67;;;;;;;5.89;100.00;-10671.81;5030188;28;20187;-66
2024/01/05 06:43:17;;;;;;;1.00;1.00;;;;;;;6.12;100.00;-10990.91;5030585;28;20232;-65
2024/01/05 06:45:42;;;;;;;1.13;1.13;;;;;;;5.99;100.00;-9719.66;5030676;28;20175;-65
2024/01/05 06:48:08;;;;;;;1.03;1.03;;;;;;;6.06;100.00;-9720.00;5030553;28;20175;-66
2024/01/05 06:50:33;;;;;;;1.20;1.20;;;;;;;6.37;100.00;-9085.75;5030303;28;20612;-67
2024/01/05 06:52:59;;;;;;;1.20;1.20;;;;;;;6.39;100.00;-9721.59;5030304;28;20179;-67
2024/01/05 06:55:24;;;;;;;1.37;1.37;;;;;;;6.43;100.00;-9086.00;5030416;28;20234;-65
2024/01/05 06:57:50;;;;;;;1.13;1.13;;;;;;;6.23;100.00;-8449.50;5034631;28;20195;-68
2024/01/05 07:00:15;;;;;;;1.40;1.30;;;;;;;6.52;100.00;-9404.28;5030662;28;20258;-66
2024/01/05 07:02:41;;;;;;;1.20;1.20;;;;;;;6.75;100.00;-9405.28;5030169;28;20178;-65
2024/01/05 07:05:07;;;;;;;1.30;1.30;;;;;;;6.81;100.00;-8132.91;5030065;28;20203;-68
2024/01/05 07:07:32;;;;;;;1.10;1.10;;;;;;;6.96;100.00;-7178.19;5030343;28;20647;-69
2024/01/05 07:09:58;;;;;;;1.30;1.23;;;;;;;6.94;100.00;-6222.88;5030306;28;20178;-67
2024/01/05 07:12:24;;;;;;;1.10;1.10;;;;;;;7.27;100.00;-2715.59;5028716;28;20191;-66
2024/01/05 07:14:49;;;;;;;1.33;1.27;;;;;;;7.46;100.00;-1756.91;5030518;28;20187;-65
2024/01/05 07:17:15;;;;;;;1.00;1.00;;;;;;;7.20;100.00;-1440.03;5029687;28;20182;-67
2024/01/05 07:19:41;;;;;;;1.00;1.00;;;;;;;7.68;100.00;1759.06;5029565;28;20199;-67
2024/01/05 07:22:07;;;;;;;1.07;1.07;;;;;;;7.34;100.00;3032.34;5029298;28;20234;-67
2024/01/05 07:24:37;;;;;;;1.17;1.17;;;;;;;7.88;100.00;4960.91;5029562;28;20175;-67
2024/01/05 07:27:03;;;;;;;1.50;1.20;;;;;;;7.88;100.00;5921.13;5029448;28;20647;-66
2024/01/05 07:29:29;;;;;;;1.47;1.37;;;;;;;8.21;100.00;7850.44;5029657;28;20233;-66
2024/01/05 07:31:54;;;;;;;1.00;1.00;;;;;;;8.23;100.00;10095.31;5029824;28;20231;-67
2024/01/05 07:34:20;;;;;;;1.40;1.30;;;;;;;8.57;100.00;12673.16;5029685;28;20195;-66
2024/01/05 07:36:45;;;;;;;1.10;1.10;;;;;;;8.75;100.00;16858.03;5030176;28;20176;-66
2024/01/05 07:39:13;;;;;;;1.50;1.40;;;;;;;8.86;100.00;22980.81;5030169;28;20175;-67
2024/01/05 07:41:39;;;;;;;1.20;1.20;;;;;;;9.00;100.00;25567.34;5028701;28;20205;-67
2024/01/05 07:44:05;;;;;;;1.08;1.08;;;;;;;8.96;100.00;28147.16;5031485;28;20175;-66
2024/01/05 07:46:31;;;;;;;1.05;1.05;;;;;;;9.25;100.00;28810.34;5032263;28;20186;-65
2024/01/05 07:48:56;;;;;;;1.73;1.63;;;;;;;9.01;100.00;30734.53;5034023;28;20301;-66
2024/01/05 07:51:22;;;;;;;1.08;1.08;;;;;;;9.33;100.00;28491.69;5034182;28;20554;-67
2024/01/05 07:53:48;;;;;;;1.30;1.25;;;;;;;9.53;100.00;31090.03;5033630;28;20249;-67
2024/01/05 07:56:14;;;;;;;1.10;1.10;;;;;;;9.49;100.00;30440.41;5033842;28;20199;-71
2024/01/05 07:58:40;;;;;;;1.05;1.05;;;;;;;9.69;100.00;33365.69;5036549;28;20164;-67
2024/01/05 08:01:05;;;;;;;1.08;1.08;;;;;;;9.60;100.00;34330.97;5033979;28;20212;-66
2024/01/05 08:03:31;;;;;;;1.50;1.40;;;;;;;9.73;100.00;35959.63;5033744;28;20163;-66
2024/01/05 08:05:57;;;;;;;1.05;1.05;;;;;;;9.84;100.00;40220.56;5034006;28;20532;-66
2024/01/05 08:08:22;;;;;;;1.10;1.10;;;;;;;10.00;100.00;40979.06;5033701;28;20258;-69
2024/01/05 08:10:48;;;;;;;1.35;1.25;;;;;;;10.34;100.00;44585.50;5033540;28;20263;-66
2024/01/05 08:13:13;;;;;;;1.20;1.20;;;;;;;10.35;100.00;45211.38;5033491;28;20262;-65
2024/01/05 08:15:38;;;;;;;1.60;1.50;;;;;;;10.25;100.00;46794.00;5033610;28;20199;-66
2024/01/05 08:18:04;;;;;;;1.30;1.20;;;;;;;10.33;100.00;48921.94;5033241;28;20211;-68
2024/01/05 08:20:29;;;;;;;1.17;1.13;;;;;;;10.72;100.00;50016.19;5033221;28;20167;-66
2024/01/05 08:22:55;;;;;;;1.33;1.23;;;;;;;10.67;100.00;51136.97;5033383;28;20178;-67
2024/01/05 08:25:20;;;;;;;1.23;1.13;;;;;;;10.96;100.00;51483.41;5033438;28;20177;-67
2024/01/05 08:27:45;;;;;;;0.90;0.90;;;;;;;10.98;100.00;52688.41;5033207;28;20262;-66
2024/01/05 08:30:14;;;;;;;0.95;0.95;;;;;;;11.05;100.00;53411.84;5033335;28;20241;-67
2024/01/05 08:32:41;;;;;;;1.00;1.00;;;;;;;11.48;100.00;52165.88;5033123;28;20221;-65
2024/01/05 08:35:07;;;;;;;1.00;1.00;;;;;;;11.39;100.00;56348.25;5032755;28;20281;-68
2024/01/05 08:37:33;;;;;;;1.20;1.20;;;;;;;11.75;100.00;57077.56;5033156;28;20254;-68
2024/01/05 08:39:58;;;;;;;0.90;0.90;;;;;;;11.82;100.00;57634.59;5040793;28;20282;-66
2024/01/05 08:42:23;;;;;;;0.90;0.90;;;;;;;11.75;100.00;58199.72;5033040;28;20351;-67
2024/01/05 08:44:50;;;;;;;1.30;1.20;;;;;;;11.88;100.00;58124.28;4683564;28;21080;-66
2024/01/05 08:47:16;;;;;;;2.08;1.98;;;;;;;11.87;100.00;58458.19;4319305;28;21083;-66
2024/01/05 08:49:42;;;;;;;1.05;1.05;;;;;;;12.16;100.00;58409.81;4684494;28;20187;-66
2024/01/05 08:52:07;;;;;;;0.85;0.85;;;;;;;12.25;100.00;58676.00;5032803;28;20382;-67
2024/01/05 08:54:33;;;;;;;1.27;1.20;;;;;;;12.43;100.00;58648.97;5031027;28;20199;-67
2024/01/05 08:56:58;;;;;;;1.40;1.30;;;;;;;12.34;100.00;59112.72;5031710;28;20168;-66
2024/01/05 08:59:24;;;;;;;1.05;1.05;;;;;;;12.53;100.00;59919.19;5032761;28;20178;-66
2024/01/05 09:01:49;;;;;;;1.15;1.05;;;;;;;12.83;100.00;60070.88;5033722;28;20171;-66
2024/01/05 09:04:15;;;;;;;1.00;1.00;;;;;;;12.72;100.00;60055.53;5032579;28;20202;-66
2024/01/05 09:06:40;;;;;;;1.00;1.00;;;;;;;12.84;100.00;60161.69;5032287;28;20175;-67
2024/01/05 09:09:06;;;;;;;1.00;1.00;;;;;;;13.07;100.00;60263.63;5032282;28;20168;-67
2024/01/05 09:11:31;;;;;;;0.90;0.90;;;;;;;13.20;100.00;60421.75;5032602;28;20178;-66
2024/01/05 09:13:57;;;;;;;2.60;1.35;;;;;;;13.01;100.00;60405.63;5032620;28;20168;-65
2024/01/05 09:16:22;;;;;;;0.95;0.95;;;;;;;13.06;96.81;60579.84;5032208;28;20797;-67
2024/01/05 09:18:49;;;;;;;0.80;0.80;;;;;;;13.18;95.86;60616.38;5032049;28;20172;-65
2024/01/05 09:21:15;;;;;;;0.75;0.75;;;;;;;13.51;93.27;60786.22;5032509;28;20304;-65
2024/01/05 09:23:41;;;;;;;0.80;0.80;;;;;;;13.61;92.62;60769.22;5030750;28;20183;-66
2024/01/05 09:26:16;;;;;;;1.10;1.10;;;;;;;13.53;91.42;60857.78;5032190;28;20190;-66
2024/01/05 09:28:42;;;;;;;1.13;1.13;;;;;;;13.42;95.56;60832.56;5032205;28;20209;-68
2024/01/05 09:31:08;;;;;;;1.00;0.95;;;;;;;13.59;94.55;60810.63;5031458;28;20565;-65
2024/01/05 09:33:33;;;;;;;1.30;1.25;;;;;;;13.49;96.14;60814.78;5032385;28;20709;-67
2024/01/05 09:36:02;;;;;;;0.90;0.90;;;;;;;13.44;96.29;60745.03;5030794;28;20207;-65
2024/01/05 09:38:28;;;;;;;1.05;1.05;;;;;;;13.82;98.03;60725.50;5032286;28;20179;-65
2024/01/05 09:40:54;;;;;;;1.05;1.05;;;;;;;13.89;94.17;60844.31;5031715;28;20167;-64
2024/01/05 09:43:23;;;;;;;1.30;1.20;;;;;;;13.96;96.17;60825.97;5031910;28;20654;-66
2024/01/05 09:45:50;;;;;;;3.17;1.23;;;;;;;13.91;90.87;60899.94;5031915;28;20194;-70
2024/01/05 09:48:19;;;;;;;1.05;1.05;;;;;;;13.82;90.42;60913.47;5031898;28;20553;-62
2024/01/05 09:50:52;;;;;;;0.93;0.93;;;;;;;13.98;93.62;60941.75;5032017;28;20646;-64
2024/01/05 09:53:17;;;;;;;0.90;0.90;;;;;;;13.75;92.47;60940.97;5030441;28;20179;-65
2024/01/05 09:55:52;;;;;;;1.27;1.23;;;;;;;13.73;93.02;60933.59;5031815;28;20199;-65
2024/01/05 09:58:18;;;;;;;1.20;1.15;;;;;;;13.96;93.46;60957.47;5031674;28;20175;-65
2024/01/05 10:00:47;;;;;;;17.52;2.10;;;;;;;14.04;86.47;61069.22;5030441;28;20566;-64
2024/01/05 10:03:20;;;;;;;0.77;0.77;;;;;;;14.20;87.85;61101.53;5031634;28;20225;-65
2024/01/05 10:05:46;;;;;;;1.15;1.15;;;;;;;14.25;91.35;61037.81;5031686;28;20233;-67
2024/01/05 10:08:13;;;;;;;0.95;0.93;;;;;;;14.36;87.82;61073.34;5031276;28;20569;-68
2024/01/05 10:10:58;;;;;;;1.52;1.42;;;;;;;14.43;90.48;61083.81;5030007;28;20631;-69
2024/01/05 10:13:24;;;;;;;1.10;1.10;;;;;;;14.04;85.36;61115.44;5031883;28;20604;-67
2024/01/05 10:16:00;;;;;;;1.08;1.08;;;;;;;14.35;84.48;61123.59;5029879;28;20207;-67
2024/01/05 10:18:28;;;;;;;1.00;1.00;;;;;;;14.19;86.00;61144.09;5031192;28;20179;-67
2024/01/05 10:20:55;;;;;;;1.00;1.00;;;;;;;14.53;86.58;61197.91;5031174;28;20159;-67
2024/01/05 10:23:21;;;;;;;0.95;0.95;;;;;;;14.71;83.49;61135.94;5029418;28;20274;-68
2024/01/05 10:25:47;;;;;;;1.48;1.20;;;;;;;14.84;82.79;61199.47;5030875;28;20179;-68
2024/01/05 10:28:20;;;;;;;1.52;1.17;;;;;;;14.86;82.42;61188.31;5030937;28;20171;-67
2024/01/05 10:30:45;;;;;;;1.00;1.00;;;;;;;15.03;80.97;61236.38;5031343;28;20187;-67
2024/01/05 10:33:11;;;;;;;0.85;0.85;;;;;;;14.99;82.94;61265.28;5030333;28;20219;-67
2024/01/05 10:35:36;;;;;;;1.30;0.82;;;;;;;14.87;84.72;61259.47;5030479;28;20191;-68
2024/01/05 10:38:13;;;;;;;1.48;1.38;;;;;;;14.82;82.02;61233.22;5031242;28;20203;-69
2024/01/05 10:40:39;;;;;;;1.08;1.08;;;;;;;14.95;82.34;61235.06;5031221;28;20156;-68
2024/01/05 10:43:13;;;;;;;0.90;0.90;;;;;;;14.89;84.72;61227.72;5030889;28;20172;-67
2024/01/05 10:45:41;;;;;;;0.80;0.80;;;;;;;14.69;85.92;61189.69;5030848;28;20221;-67
2024/01/05 10:48:13;;;;;;;0.90;0.90;;;;;;;14.71;87.15;61209.94;5030659;28;20258;-67
2024/01/05 10:50:41;;;;;;;3.40;1.00;;;;;;;14.73;86.33;61187.06;5030876;28;20168;-67
2024/01/05 10:53:10;;;;;;;0.90;0.90;;;;;;;14.66;87.13;61188.91;5031005;28;20207;-66
2024/01/05 10:55:39;;;;;;;3.55;1.63;;;;;;;14.76;88.06;61202.75;5030784;28;20199;-67
2024/01/05 10:58:09;;;;;;;1.10;1.00;;;;;;;14.76;90.14;61211.03;5029520;28;20666;-66
2024/01/05 11:00:36;;;;;;;1.00;1.00;;;;;;;14.98;89.51;61232.75;5030583;28;20179;-68
2024/01/05 11:03:12;;;;;;;0.90;0.90;;;;;;;15.24;88.19;61320.72;5032116;28;20179;-67
2024/01/05 11:05:41;;;;;;;1.15;1.15;;;;;;;14.95;89.19;61224.19;5030619;28;20575;-67
2024/01/05 11:08:13;;;;;;;0.93;0.93;;;;;;;15.31;89.67;61272.59;5029540;28;20210;-68
2024/01/05 11:10:57;;;;;;;1.23;1.17;;;;;;;14.47;88.95;61211.69;5029602;28;20597;-67
2024/01/05 11:13:52;;;;;;;1.38;1.27;;;;;;;15.22;88.85;61267.56;5030363;28;20621;-68
2024/01/05 11:16:53;;;;;;;0.88;0.88;;;;;;;14.86;91.10;61245.47;5030864;28;20195;-67
2024/01/05 11:19:33;;;;;;;1.00;1.00;;;;;;;14.92;90.86;61195.09;5021747;28;20273;-68
2024/01/05 11:22:29;;;;;;;1.17;1.15;;;;;;;15.22;89.71;61275.28;5034622;28;20182;-69
2024/01/05 11:24:57;;;;;;;1.33;1.23;;;;;;;15.16;88.78;61262.81;5032912;28;20175;-67
2024/01/05 11:27:30;;;;;;;1.25;1.15;;;;;;;15.20;89.00;61262.19;5032961;28;20179;-68